.
WxDataArchive / Data Records for 2012-08-25
2012-08-24 August 2012 2012-08-26

Data Records for Saturday, 25 August 2012

Time	Temp	Chill	HIndex	Humid	Dewpt	 Wind 	HiWind	WindDir	Rain 	Barom 
-----	----	-----	------	-----	-----	------	------	-------	-----	----- 
00:00	68.1	68.1	68.1	79	61.3	0	0	---	0.00	30.040 
00:05	67.9	67.9	67.9	79	61.1	0	0	---	0.00	30.040 
00:10	67.9	67.9	67.9	79	61.1	0	0	---	0.00	30.040 
00:15	67.8	67.8	67.8	79	61.0	0	0	---	0.00	30.036 
00:20	67.8	67.8	67.8	79	61.0	0	0	---	0.00	30.036 
00:25	67.6	67.6	67.6	79	60.8	0	0	---	0.00	30.036 
00:30	67.6	67.6	67.6	79	60.8	0	0	---	0.00	30.035 
00:35	67.4	67.4	67.4	79	60.7	0	0	---	0.00	30.035 
00:40	67.4	67.4	67.4	79	60.7	0	0	---	0.00	30.035 
00:45	67.3	67.3	67.3	79	60.6	0	0	---	0.00	30.036 
00:50	67.3	67.3	67.3	79	60.6	0	0	---	0.00	30.036 
00:55	67.1	67.1	67.1	79	60.4	0	0	---	0.00	30.036 
01:00	67.1	67.1	67.1	79	60.4	0	0	---	0.00	30.038 
01:05	66.9	66.9	66.9	79	60.2	0	0	---	0.00	30.038 
01:10	66.8	66.8	66.8	80	60.4	0	0	---	0.00	30.038 
01:15	66.6	66.6	66.6	80	60.2	0	0	---	0.00	30.034 
01:20	66.4	66.4	66.4	80	60.0	0	0	---	0.00	30.034 
01:25	66.4	66.4	66.4	80	60.0	0	0	---	0.00	30.034 
01:30	66.3	66.3	66.3	80	59.9	0	0	---	0.00	30.033 
01:35	66.3	66.3	66.3	81	60.3	0	0	---	0.00	30.033 
01:40	66.1	66.1	66.1	80	59.7	0	0	---	0.00	30.033 
01:45	66.1	66.1	66.1	80	59.7	0	0	---	0.00	30.031 
01:50	66.0	66.0	66.0	81	60.0	0	0	---	0.00	30.031 
01:55	66.0	66.0	66.0	80	59.6	0	0	---	0.00	30.031 
02:00	66.0	66.0	66.0	80	59.6	0	0	---	0.00	30.032 
02:05	66.0	66.0	66.0	80	59.6	0	0	---	0.00	30.032 
02:10	65.8	65.8	65.8	80	59.5	0	0	---	0.00	30.032 
02:15	65.8	65.8	65.8	80	59.5	0	0	---	0.00	30.025 
02:20	65.6	65.6	65.6	80	59.3	0	0	---	0.00	30.025 
02:25	65.5	65.5	65.5	81	59.5	0	0	---	0.00	30.025 
02:30	65.5	65.5	65.5	81	59.5	0	0	---	0.00	30.024 
02:35	65.3	65.3	65.3	81	59.3	0	0	---	0.00	30.024 
02:40	65.2	65.2	65.2	81	59.2	0	0	---	0.00	30.024 
02:45	65.0	65.0	65.0	81	59.0	0	0	---	0.00	30.027 
02:50	64.8	64.8	64.8	82	59.2	0	0	---	0.00	30.027 
02:55	64.7	64.7	64.7	82	59.1	0	0	---	0.00	30.027 
03:00	64.5	64.5	64.5	83	59.2	0	0	---	0.00	30.028 
03:05	64.3	64.3	64.3	83	59.0	0	0	---	0.00	30.028 
03:10	64.2	64.2	64.2	84	59.3	0	0	---	0.00	30.028 
03:15	64.0	64.0	64.0	84	59.1	0	0	---	0.00	30.032 
03:20	63.9	63.9	63.9	85	59.3	0	0	---	0.00	30.032 
03:25	63.9	63.9	63.9	86	59.6	0	0	---	0.00	30.032 
03:30	63.7	63.7	63.7	86	59.4	0	0	---	0.00	30.034 
03:35	63.5	63.5	63.5	87	59.6	0	0	---	0.00	30.034 
03:40	63.4	63.4	63.4	87	59.5	0	0	---	0.00	30.034 
03:45	63.2	63.2	63.2	87	59.3	0	0	---	0.00	30.039 
03:50	63.2	63.2	63.2	87	59.3	0	0	---	0.00	30.039 
03:55	63.1	63.1	63.1	87	59.2	0	0	---	0.00	30.039 
04:00	62.9	62.9	62.9	87	59.0	0	0	---	0.00	30.035 
04:05	62.9	62.9	62.9	87	59.0	0	0	---	0.00	30.035 
04:10	62.9	62.9	62.9	87	59.0	0	0	---	0.00	30.035 
04:15	62.7	62.7	62.7	87	58.8	0	0	---	0.00	30.038 
04:20	62.6	62.6	62.6	87	58.7	0	0	---	0.00	30.038 
04:25	62.4	62.4	62.4	87	58.5	0	0	---	0.00	30.038 
04:30	62.3	62.3	62.3	88	58.7	0	0	---	0.00	30.034 
04:35	62.1	62.1	62.1	88	58.5	0	0	---	0.00	30.034 
04:40	62.0	62.0	62.0	88	58.4	0	0	---	0.00	30.034 
04:45	62.0	62.0	62.0	88	58.4	0	0	---	0.00	30.041 
04:50	61.8	61.8	61.8	88	58.2	0	0	---	0.00	30.041 
04:55	61.8	61.8	61.8	88	58.2	0	0	---	0.00	30.041 
05:00	61.8	61.8	61.8	88	58.2	0	0	---	0.00	30.039 
05:05	61.8	61.8	61.8	88	58.2	0	0	---	0.00	30.039 
05:10	61.6	61.6	61.6	88	58.0	0	0	---	0.00	30.039 
05:15	61.6	61.6	61.6	88	58.0	0	0	---	0.00	30.042 
05:20	61.5	61.5	61.5	88	57.9	0	0	---	0.00	30.042 
05:25	61.5	61.5	61.5	89	58.2	0	0	---	0.00	30.042 
05:30	61.5	61.5	61.5	88	57.9	0	0	---	0.00	30.045 
05:35	61.5	61.5	61.5	88	57.9	0	0	---	0.00	30.045 
05:40	61.5	61.5	61.5	88	57.9	0	0	---	0.00	30.045 
05:45	61.3	61.3	61.3	89	58.0	0	0	---	0.00	30.045 
05:50	61.3	61.3	61.3	89	58.0	0	0	---	0.00	30.045 
05:55	61.3	61.3	61.3	89	58.0	0	0	---	0.00	30.045 
06:00	61.3	61.3	61.3	89	58.0	0	0	---	0.00	30.048 
06:05	61.3	61.3	61.3	89	58.0	0	0	---	0.00	30.048 
06:10	61.3	61.3	61.3	89	58.0	0	1	68	0.00	30.048 
06:15	61.3	61.3	61.3	89	58.0	0	0	---	0.00	30.056 
06:20	61.3	61.3	61.3	89	58.0	0	0	---	0.00	30.056 
06:25	61.3	61.3	61.3	89	58.0	0	0	---	0.00	30.056 
06:30	61.5	61.5	61.5	89	58.2	0	0	---	0.00	30.058 
06:35	61.5	61.5	61.5	89	58.2	0	0	---	0.00	30.058 
06:40	61.3	61.3	61.3	88	57.7	0	0	---	0.00	30.058 
06:45	61.2	61.2	61.2	88	57.6	0	0	---	0.00	30.061 
06:50	61.2	61.2	61.2	88	57.6	0	0	---	0.00	30.061 
06:55	61.0	61.0	61.0	89	57.7	0	0	---	0.00	30.061 
07:00	60.9	60.9	60.9	89	57.6	0	0	---	0.00	30.065 
07:05	60.7	60.7	60.7	89	57.4	0	0	---	0.00	30.065 
07:10	60.7	60.7	60.7	89	57.4	0	0	---	0.00	30.065 
07:15	60.7	60.7	60.7	89	57.4	0	0	---	0.00	30.071 
07:20	60.5	60.5	60.5	89	57.2	0	0	---	0.00	30.071 
07:25	60.5	60.5	60.5	89	57.2	0	0	---	0.00	30.071 
07:30	60.5	60.5	60.5	90	57.5	0	0	---	0.00	30.069 
07:35	60.7	60.7	60.7	90	57.7	0	0	---	0.00	30.069 
07:40	60.7	60.7	60.7	90	57.7	0	0	---	0.00	30.069 
07:45	61.0	61.0	61.0	90	58.0	0	1	68	0.00	30.076 
07:50	61.5	61.5	61.5	90	58.5	0	0	---	0.00	30.076 
07:55	62.1	62.1	62.1	89	58.8	0	1	68	0.00	30.076 
08:00	63.1	63.1	63.1	87	59.2	0	1	68	0.00	30.076 
08:05	63.7	63.7	63.7	84	58.8	0	1	68	0.00	30.076 
08:10	64.5	64.5	64.5	83	59.2	0	1	68	0.00	30.076 
08:15	65.2	65.2	65.2	81	59.2	0	1	68	0.00	30.083 
08:20	65.8	65.8	65.8	79	59.1	0	1	68	0.00	30.083 
08:25	66.4	66.4	66.4	77	59.0	0	1	68	0.00	30.083 
08:30	67.3	67.3	67.3	76	59.5	0	1	68	0.00	30.081 
08:35	67.9	67.9	67.9	74	59.3	0	2	68	0.00	30.081 
08:40	68.3	68.3	68.3	73	59.3	0	2	68	0.00	30.081 
08:45	68.3	68.3	68.3	73	59.3	0	2	68	0.00	30.084 
08:50	68.4	68.4	68.4	73	59.4	0	3	68	0.00	30.084 
08:55	68.9	68.9	68.9	71	59.1	0	2	68	0.00	30.084 
09:00	69.4	69.4	69.4	70	59.2	0	2	68	0.00	30.082 
09:05	69.6	69.6	69.6	70	59.4	0	2	68	0.00	30.082 
09:10	69.8	69.8	69.8	70	59.6	0	1	68	0.00	30.082 
09:15	69.9	69.9	69.9	70	59.7	0	1	68	0.00	30.085 
09:20	70.3	70.3	70.3	69	59.6	0	3	68	0.00	30.085 
09:25	70.6	70.6	70.6	69	59.9	0	1	68	0.00	30.085 
09:30	71.1	71.1	71.1	69	60.4	0	1	68	0.00	30.083 
09:35	71.6	71.6	71.6	68	60.5	0	1	68	0.00	30.083 
09:40	72.1	72.1	72.1	67	60.5	0	2	68	0.00	30.083 
09:45	72.8	72.8	72.8	67	61.2	0	2	68	0.00	30.078 
09:50	73.2	73.2	73.2	66	61.1	0	2	68	0.00	30.078 
09:55	73.9	73.9	73.9	65	61.4	0	1	68	0.00	30.078 
10:00	74.6	74.6	74.6	64	61.6	0	1	68	0.00	30.076 
10:05	75.1	75.1	77.3	62	61.2	0	1	68	0.00	30.076 
10:10	75.3	75.3	77.5	62	61.4	0	2	68	0.00	30.076 
10:15	76.0	76.0	78.0	61	61.6	0	1	68	0.00	30.080 
10:20	76.8	76.8	78.6	60	61.8	0	2	68	0.00	30.080 
10:25	77.6	77.6	79.2	58	61.6	1	3	68	0.00	30.080 
10:30	78.3	78.3	79.8	57	61.8	1	2	68	0.00	30.084 
10:35	78.8	78.8	80.3	58	62.8	1	2	68	0.00	30.084 
10:40	79.2	79.2	80.7	57	62.6	1	3	68	0.00	30.084 
10:45	79.6	79.6	81.0	56	62.5	1	3	68	0.00	30.081 
10:50	79.9	79.9	81.2	55	62.3	1	3	68	0.00	30.081 
10:55	80.1	80.1	81.4	55	62.4	1	4	68	0.00	30.081 
11:00	79.9	79.9	81.2	55	62.3	1	4	90	0.00	30.084 
11:05	80.5	80.5	81.6	53	61.8	0	3	90	0.00	30.084 
11:10	81.2	81.2	82.5	54	62.9	0	1	90	0.00	30.084 
11:15	82.4	82.4	83.7	53	63.5	0	1	90	0.00	30.080 
11:20	83.0	83.0	83.7	49	61.8	1	4	90	0.00	30.080 
11:25	82.4	82.4	83.7	53	63.5	2	5	90	0.00	30.080 
11:30	82.4	82.4	83.2	50	61.9	1	3	90	0.00	30.078 
11:35	82.8	82.8	83.8	51	62.8	1	3	90	0.00	30.078 
11:40	83.4	83.4	84.6	51	63.3	1	3	68	0.00	30.078 
11:45	83.8	83.8	85.3	52	64.3	1	3	68	0.00	30.072 
11:50	84.1	84.1	85.5	51	64.0	0	2	68	0.00	30.072 
11:55	84.7	84.7	86.0	50	64.0	1	3	68	0.00	30.072 
12:00	84.9	84.9	85.8	48	63.0	1	4	68	0.00	30.074 
12:05	84.7	84.7	85.6	48	62.8	2	4	68	0.00	30.074 
12:10	84.7	84.7	85.6	48	62.8	1	4	68	0.00	30.074 
12:15	85.1	85.1	86.1	48	63.2	1	3	68	0.00	30.070 
12:20	85.5	85.5	87.2	50	64.7	1	3	68	0.00	30.070 
12:25	85.7	85.7	86.7	47	63.1	2	4	112	0.00	30.070 
12:30	86.1	86.1	87.8	49	64.7	1	5	112	0.00	30.066 
12:35	85.9	85.9	87.5	49	64.5	1	5	68	0.00	30.066 
12:40	86.3	86.3	87.2	46	63.0	1	3	68	0.00	30.066 
12:45	86.7	86.7	88.1	47	64.0	0	3	45	0.00	30.066 
12:50	87.4	87.4	87.6	42	61.5	1	4	112	0.00	30.066 
12:55	87.6	87.6	88.2	43	62.3	1	3	112	0.00	30.066 
13:00	87.6	87.6	88.5	44	63.0	2	4	90	0.00	30.064 
13:05	87.8	87.8	88.5	43	62.5	1	4	112	0.00	30.064 
13:10	88.0	88.0	89.0	44	63.3	1	4	90	0.00	30.064 
13:15	88.4	88.4	89.3	43	63.0	1	3	90	0.00	30.064 
13:20	88.6	88.6	89.3	42	62.5	1	3	90	0.00	30.064 
13:25	89.0	89.0	89.3	40	61.5	1	3	112	0.00	30.064 
13:30	89.3	89.3	89.7	40	61.8	1	3	45	0.00	30.058 
13:35	89.0	89.0	89.6	41	62.2	2	5	90	0.00	30.058 
13:40	89.3	89.3	90.0	41	62.5	1	4	90	0.00	30.058 
13:45	89.3	89.3	90.3	42	63.2	1	5	90	0.00	30.060 
13:50	89.3	89.3	90.6	43	63.8	1	3	90	0.00	30.060 
13:55	89.0	89.0	90.2	43	63.6	2	4	90	0.00	30.060 
14:00	89.3	89.3	91.4	45	65.1	1	4	112	0.00	30.054 
14:05	89.5	89.5	90.6	42	63.3	1	3	135	0.00	30.054 
14:10	89.9	89.9	91.6	43	64.4	1	3	135	0.00	30.054 
14:15	89.9	89.9	91.6	43	64.4	2	5	112	0.00	30.053 
14:20	89.5	89.5	91.0	43	64.0	1	5	68	0.00	30.053 
14:25	89.3	89.3	91.0	44	64.5	2	5	90	0.00	30.053 
14:30	89.5	89.5	90.0	40	61.9	2	4	90	0.00	30.050 
14:35	89.7	89.7	90.6	41	62.8	1	2	90	0.00	30.050 
14:40	90.3	90.3	91.5	41	63.4	1	3	90	0.00	30.050 
14:45	90.7	90.7	91.7	40	63.0	1	3	90	0.00	30.039 
14:50	90.7	90.7	91.4	39	62.3	2	4	112	0.00	30.039 
14:55	90.7	90.7	91.4	39	62.3	1	3	112	0.00	30.039 
15:00	90.7	90.7	91.4	39	62.3	1	2	112	0.00	30.036 
15:05	91.0	91.0	90.8	36	60.3	1	3	112	0.00	30.036 
15:10	90.5	90.5	91.1	39	62.1	1	4	112	0.00	30.036 
15:15	90.5	90.5	90.4	37	60.6	0	4	112	0.00	30.036 
15:20	91.0	91.0	92.2	40	63.3	1	3	112	0.00	30.036 
15:25	91.2	91.2	91.8	38	62.0	1	4	112	0.00	30.036 
15:30	91.4	91.4	89.9	31	56.5	1	3	90	0.00	30.037 
15:35	91.6	91.6	90.7	33	58.4	1	4	90	0.00	30.037 
15:40	91.4	91.4	89.9	31	56.5	1	3	292	0.00	30.037 
15:45	91.8	91.8	92.3	37	61.8	1	2	315	0.00	30.030 
15:50	91.2	91.2	91.8	38	62.0	2	4	68	0.00	30.030 
15:55	90.1	90.1	90.5	39	61.8	0	2	68	0.00	30.030 
16:00	89.9	89.9	90.2	39	61.6	1	4	135	0.00	30.025 
16:05	89.3	89.3	88.8	37	59.6	1	3	90	0.00	30.025 
16:10	88.6	88.6	88.2	38	59.7	1	4	90	0.00	30.025 
16:15	88.0	88.0	88.2	41	61.3	1	3	90	0.00	30.026 
16:20	87.8	87.8	88.2	42	61.8	0	2	90	0.00	30.026 
16:25	87.8	87.8	88.5	43	62.5	1	4	90	0.00	30.026 
16:30	88.4	88.4	89.0	42	62.3	0	2	90	0.00	30.025 
16:35	89.0	89.0	89.0	39	60.8	2	6	68	0.00	30.025 
16:40	89.5	89.5	89.1	37	59.7	3	6	68	0.00	30.025 
16:45	89.5	89.5	89.3	38	60.5	2	6	68	0.00	30.019 
16:50	89.9	89.9	90.5	40	62.3	1	3	68	0.00	30.019 
16:55	89.7	89.7	89.3	37	59.9	1	4	68	0.00	30.019 
17:00	89.0	89.0	88.4	37	59.3	2	5	90	0.00	30.022 
17:05	89.0	89.0	89.0	39	60.8	2	6	135	0.00	30.022 
17:10	89.3	89.3	88.8	37	59.6	2	6	68	0.00	30.022 
17:15	89.5	89.5	89.1	37	59.7	2	4	90	0.00	30.022 
17:20	89.5	89.5	88.8	36	59.0	3	7	68	0.00	30.022 
17:25	89.7	89.7	88.8	35	58.4	1	5	68	0.00	30.022 
17:30	89.9	89.9	88.8	34	57.7	1	2	68	0.00	30.015 
17:35	90.1	90.1	89.0	34	57.9	1	2	68	0.00	30.015 
17:40	90.1	90.1	89.0	34	57.9	1	3	112	0.00	30.015 
17:45	90.3	90.3	89.3	34	58.1	0	3	112	0.00	30.013 
17:50	90.3	90.3	89.0	33	57.2	1	3	68	0.00	30.013 
17:55	90.3	90.3	88.7	32	56.4	0	2	68	0.00	30.013 
18:00	90.1	90.1	88.8	33	57.1	0	1	68	0.00	30.015 
18:05	90.1	90.1	88.8	33	57.1	1	3	90	0.00	30.015 
18:10	89.9	89.9	88.3	32	56.0	1	3	90	0.00	30.015 
18:15	89.7	89.7	87.8	31	55.0	1	4	112	0.00	30.023 
18:20	89.5	89.5	87.8	32	55.7	1	4	90	0.00	30.023 
18:25	89.0	89.0	87.4	33	56.1	1	4	90	0.00	30.023 
18:30	88.8	88.8	87.0	32	55.1	1	3	112	0.00	30.024 
18:35	88.8	88.8	86.8	31	54.2	0	2	112	0.00	30.024 
18:40	88.6	88.6	86.4	30	53.2	1	3	135	0.00	30.024 
18:45	88.6	88.6	86.6	31	54.1	1	2	135	0.00	30.026 
18:50	88.4	88.4	86.5	32	54.7	1	3	135	0.00	30.026 
18:55	88.2	88.2	86.5	33	55.4	1	2	135	0.00	30.026 
19:00	88.0	88.0	86.5	34	56.1	0	2	135	0.00	30.027 
19:05	87.8	87.8	86.5	35	56.7	0	2	135	0.00	30.027 
19:10	87.6	87.6	86.4	36	57.3	0	2	135	0.00	30.027 
19:15	87.4	87.4	86.4	37	57.9	0	1	135	0.00	30.026 
19:20	87.2	87.2	86.4	38	58.5	0	1	135	0.00	30.026 
19:25	86.7	86.7	85.8	38	58.0	0	1	135	0.00	30.026 
19:30	86.5	86.5	85.8	39	58.6	0	1	135	0.00	30.026 
19:35	86.1	86.1	85.4	39	58.2	0	0	---	0.00	30.026 
19:40	85.9	85.9	85.1	39	58.0	0	1	135	0.00	30.026 
19:45	85.5	85.5	84.9	40	58.4	0	1	135	0.00	30.028 
19:50	85.3	85.3	84.8	41	58.9	0	0	---	0.00	30.028 
19:55	84.9	84.9	84.4	41	58.5	0	0	---	0.00	30.028 
20:00	84.7	84.7	84.2	41	58.4	0	0	---	0.00	30.028 
20:05	84.3	84.3	83.9	42	58.7	0	1	135	0.00	30.028 
20:10	84.1	84.1	83.9	43	59.2	0	0	---	0.00	30.028 
20:15	83.8	83.8	83.7	44	59.5	0	0	---	0.00	30.026 
20:20	83.4	83.4	83.5	45	59.8	0	0	---	0.00	30.026 
20:25	83.0	83.0	83.1	45	59.4	0	0	---	0.00	30.026 
20:30	82.4	82.4	82.6	46	59.5	0	0	---	0.00	30.028 
20:35	82.0	82.0	82.5	48	60.3	0	0	---	0.00	30.028 
20:40	81.4	81.4	82.0	49	60.4	0	0	---	0.00	30.028 
20:45	81.1	81.1	81.8	50	60.7	0	0	---	0.00	30.031 
20:50	80.5	80.5	81.5	52	61.2	0	0	---	0.00	30.031 
20:55	79.9	79.9	81.0	53	61.2	0	0	---	0.00	30.031 
21:00	79.4	79.4	80.6	54	61.3	0	0	---	0.00	30.035 
21:05	78.8	78.8	80.1	54	60.7	0	0	---	0.00	30.035 
21:10	78.5	78.5	79.9	55	61.0	0	0	---	0.00	30.035 
21:15	78.1	78.1	79.6	56	61.1	0	0	---	0.00	30.038 
21:20	77.7	77.7	79.3	57	61.2	0	0	---	0.00	30.038 
21:25	77.4	77.4	79.1	58	61.4	0	0	---	0.00	30.038 
21:30	77.0	77.0	78.8	59	61.6	0	0	---	0.00	30.039 
21:35	76.7	76.7	78.5	60	61.7	0	0	---	0.00	30.039 
21:40	76.3	76.3	78.2	62	62.3	0	0	---	0.00	30.039 
21:45	76.0	76.0	77.9	63	62.5	0	0	---	0.00	30.043 
21:50	75.8	75.8	77.7	65	63.2	0	0	---	0.00	30.043 
21:55	75.4	75.4	77.4	65	62.8	0	0	---	0.00	30.043 
22:00	75.3	75.3	77.2	67	63.6	0	0	---	0.00	30.044 
22:05	74.9	74.9	74.9	68	63.6	0	0	---	0.00	30.044 
22:10	74.7	74.7	74.7	69	63.8	0	0	---	0.00	30.044 
22:15	74.6	74.6	74.6	70	64.2	0	0	---	0.00	30.045 
22:20	74.2	74.2	74.2	71	64.2	0	0	---	0.00	30.045 
22:25	74.0	74.0	74.0	72	64.4	0	0	---	0.00	30.045 
22:30	73.9	73.9	73.9	73	64.7	0	0	---	0.00	30.048 
22:35	73.7	73.7	73.7	72	64.1	0	0	---	0.00	30.048 
22:40	73.3	73.3	73.3	73	64.1	0	0	---	0.00	30.048 
22:45	73.2	73.2	73.2	73	64.0	0	0	---	0.00	30.053 
22:50	73.0	73.0	73.0	73	63.8	0	0	---	0.00	30.053 
22:55	72.8	72.8	72.8	73	63.6	0	0	---	0.00	30.053 
23:00	72.7	72.7	72.7	74	63.9	0	0	---	0.00	30.051 
23:05	72.5	72.5	72.5	74	63.7	0	0	---	0.00	30.051 
23:10	72.1	72.1	72.1	75	63.7	0	0	---	0.00	30.051 
23:15	72.0	72.0	72.0	75	63.6	0	0	---	0.00	30.046 
23:20	71.8	71.8	71.8	75	63.4	0	0	---	0.00	30.046 
23:25	71.6	71.6	71.6	76	63.6	0	0	---	0.00	30.046 
23:30	71.5	71.5	71.5	76	63.5	0	0	---	0.00	30.046 
23:35	71.5	71.5	71.5	77	63.9	0	0	---	0.00	30.046 
23:40	71.3	71.3	71.3	77	63.7	0	0	---	0.00	30.046 
23:45	71.1	71.1	71.1	77	63.5	0	0	---	0.00	30.048 
23:50	71.1	71.1	71.1	77	63.5	0	0	---	0.00	30.048 
23:55	71.1	71.1	71.1	77	63.5	0	0	---	0.00	30.048 

CoCoRaHS
IN-AL-39
A2 Web Hosting
Creative Commons License
GoDaddy
search engine by freefind advanced

loaded 2018-11-15 16:58:00 • last modified 2010-11-18 10:43:29
Privacy PolicyDisclaimer
• wx.awcolley.com is powered by PmWiki v.2002016 •
• all content (unless otherwise noted) © 2018 A W Colley